Terminal Aerodrome Forecast
Issued by NWS Cleveland, OH

Home | Current Version | Previous Version | Text Only | Print | Product List | Glossary On
Versions: 1 2 3 4 5 6 7 8 9 10 11 12 13 14 15 16 17
000
FTUS41 KCLE 192300
TAFERI
TAF
KERI 192330Z 2000/2024 19006KT P6SM BKN250
     FM201000 20010KT P6SM SCT035 OVC120
     FM201600 20012KT P6SM BKN035 OVC080=

USA.gov is the U.S. government's official web portal to all federal, state and local government web resources and services.